Time;durP1;ratioP1;P1;durP2;ratioP2;P2;SDS_P1;SDS_P2;PMS_P1;PMS_P2;Temp;Humidity;BMP_temperature;BMP_pressure;BME280_temperature;BME280_humidity;BME280_pressure;Samples;Min_cycle;Max_cycle;Signal;HPM_P1;HPM_P2
2021/03/02 00:02:09;;;;;;;14.95;8.13;;;5.70;99.90;;;;;;5015165;28;20029;-64
2021/03/02 00:04:35;;;;;;;14.63;7.03;;;5.80;99.90;;;;;;5014482;28;20045;-64
2021/03/02 00:07:00;;;;;;;15.65;6.97;;;5.70;99.90;;;;;;5014784;28;20096;-64
2021/03/02 00:09:27;;;;;;;15.25;7.28;;;5.70;99.90;;;;;;5032371;28;20522;-64
2021/03/02 00:11:54;;;;;;;18.00;6.53;;;5.60;99.90;;;;;;5032164;28;20530;-64
2021/03/02 00:14:21;;;;;;;17.15;7.57;;;5.50;99.90;;;;;;5014287;28;20041;-64
2021/03/02 00:16:58;;;;;;;16.55;6.68;;;5.40;99.90;;;;;;5032374;28;20494;-63
2021/03/02 00:19:36;;;;;;;18.40;7.35;;;5.40;99.90;;;;;;5015256;28;20038;-64
2021/03/02 00:22:27;;;;;;;16.23;6.93;;;5.50;99.90;;;;;;4998278;28;20037;-64
2021/03/02 00:25:05;;;;;;;13.27;6.28;;;5.60;99.90;;;;;;5010879;28;20056;-64
2021/03/02 00:27:32;;;;;;;13.23;6.07;;;5.60;99.90;;;;;;5011023;28;20395;-64
2021/03/02 00:29:59;;;;;;;14.57;6.55;;;5.60;99.90;;;;;;5011382;28;20113;-64
2021/03/02 00:32:26;;;;;;;16.85;7.32;;;5.60;99.90;;;;;;5011136;28;20616;-64
2021/03/02 00:34:52;;;;;;;12.02;6.25;;;5.60;99.90;;;;;;5012565;28;20120;-64
2021/03/02 00:37:17;;;;;;;14.15;6.20;;;5.40;99.90;;;;;;5011133;28;20085;-64
2021/03/02 00:39:43;;;;;;;19.25;6.43;;;5.30;99.90;;;;;;5010917;28;20030;-64
2021/03/02 00:42:10;;;;;;;14.43;6.18;;;5.50;99.90;;;;;;5010945;28;20050;-63
2021/03/02 00:44:36;;;;;;;13.57;6.35;;;5.60;99.90;;;;;;5010856;28;20030;-63
2021/03/02 00:47:02;;;;;;;15.07;6.68;;;5.50;99.90;;;;;;5012290;28;20018;-63
2021/03/02 00:49:28;;;;;;;15.75;7.45;;;5.40;99.90;;;;;;5012275;28;20113;-64
2021/03/02 00:51:54;;;;;;;11.90;5.40;;;5.50;99.90;;;;;;5011073;28;20435;-63
2021/03/02 00:54:20;;;;;;;13.70;6.45;;;5.50;99.90;;;;;;5012170;28;20026;-63
2021/03/02 00:56:46;;;;;;;13.13;6.22;;;5.60;99.90;;;;;;5010901;28;20076;-63
2021/03/02 00:59:12;;;;;;;13.55;6.45;;;5.60;99.90;;;;;;5012509;28;20022;-63
2021/03/02 01:01:38;;;;;;;15.93;6.93;;;5.70;99.90;;;;;;5012117;28;20029;-63
2021/03/02 01:04:05;;;;;;;15.98;7.00;;;5.80;99.90;;;;;;5012121;28;20104;-63
2021/03/02 01:06:30;;;;;;;13.75;6.45;;;5.70;99.90;;;;;;5012003;28;20026;-63
2021/03/02 01:08:56;;;;;;;17.67;6.18;;;5.80;99.90;;;;;;5012285;28;20443;-64
2021/03/02 01:11:22;;;;;;;15.90;6.32;;;5.80;99.90;;;;;;4994321;28;20553;-63
2021/03/02 01:13:48;;;;;;;12.32;6.20;;;5.90;99.90;;;;;;5010782;28;20117;-63
2021/03/02 01:16:14;;;;;;;14.80;6.55;;;5.70;99.90;;;;;;5012245;28;20340;-64
2021/03/02 01:18:40;;;;;;;14.82;7.00;;;5.40;99.90;;;;;;5011997;28;20084;-64
2021/03/02 01:21:06;;;;;;;15.75;7.22;;;5.20;99.90;;;;;;5012145;28;20366;-63
2021/03/02 01:23:31;;;;;;;14.23;6.70;;;5.10;99.90;;;;;;5010753;28;20088;-63
2021/03/02 01:25:57;;;;;;;15.45;7.03;;;5.00;99.90;;;;;;5029908;28;20087;-63
2021/03/02 01:28:23;;;;;;;14.25;6.65;;;5.00;99.90;;;;;;5031585;28;20498;-64
2021/03/02 01:30:48;;;;;;;14.15;6.35;;;5.10;99.90;;;;;;5031828;28;20535;-63
2021/03/02 01:33:14;;;;;;;17.77;7.32;;;5.10;99.90;;;;;;5034345;28;20033;-63
2021/03/02 01:35:40;;;;;;;15.23;7.80;;;5.00;99.90;;;;;;5035005;28;20033;-63
2021/03/02 01:38:06;;;;;;;16.70;7.38;;;5.10;99.90;;;;;;5034980;28;20115;-64
2021/03/02 01:40:31;;;;;;;16.77;6.55;;;5.30;99.90;;;;;;5034985;28;20061;-63
2021/03/02 01:42:57;;;;;;;17.63;6.43;;;5.30;99.90;;;;;;5035091;28;20466;-64
2021/03/02 01:45:24;;;;;;;13.35;6.40;;;5.70;99.90;;;;;;5034793;28;20033;-63
2021/03/02 01:47:52;;;;;;;16.40;7.00;;;5.80;99.90;;;;;;5017348;28;20115;-63
2021/03/02 01:50:20;;;;;;;14.77;7.30;;;5.80;99.90;;;;;;5035049;28;20033;-63
2021/03/02 01:52:46;;;;;;;17.77;6.95;;;5.80;99.90;;;;;;5034731;28;20445;-63
2021/03/02 01:55:16;;;;;;;15.70;7.80;;;5.90;99.90;;;;;;5017187;28;20041;-63
2021/03/02 01:57:42;;;;;;;15.20;7.13;;;5.90;99.90;;;;;;5017375;28;20478;-63
2021/03/02 02:00:24;;;;;;;14.13;6.45;;;5.90;99.90;;;;;;5034776;28;20072;-64
2021/03/02 02:03:15;;;;;;;21.80;6.57;;;5.90;99.90;;;;;;5034732;28;20112;-64
2021/03/02 02:05:48;;;;;;;20.42;7.45;;;5.90;99.90;;;;;;5026178;28;20052;-64
2021/03/02 02:08:21;;;;;;;18.13;7.22;;;5.90;99.90;;;;;;5012791;28;20470;-64
2021/03/02 02:10:58;;;;;;;18.60;7.68;;;5.70;99.90;;;;;;5012419;28;20052;-64
2021/03/02 02:13:38;;;;;;;20.95;8.25;;;5.60;99.90;;;;;;5013614;28;20033;-64
2021/03/02 02:16:09;;;;;;;22.70;8.48;;;5.60;99.90;;;;;;5013535;28;20121;-64
2021/03/02 02:18:37;;;;;;;17.33;8.07;;;5.40;99.90;;;;;;5013457;28;20030;-64
2021/03/02 02:21:05;;;;;;;15.35;7.85;;;5.30;99.90;;;;;;5013548;28;20073;-64
2021/03/02 02:24:01;;;;;;;15.00;7.82;;;5.30;99.90;;;;;;5013344;28;20045;-64
2021/03/02 02:26:57;;;;;;;20.17;7.70;;;5.20;99.90;;;;;;5013246;28;20081;-63
2021/03/02 02:29:33;;;;;;;19.02;7.88;;;5.10;99.90;;;;;;4999032;28;20084;-64
2021/03/02 02:32:01;;;;;;;16.50;7.57;;;4.90;99.90;;;;;;5013011;28;20098;-64
2021/03/02 02:34:31;;;;;;;21.15;7.75;;;4.90;99.90;;;;;;5013283;28;20505;-64
2021/03/02 02:37:01;;;;;;;15.77;7.90;;;4.80;99.90;;;;;;5014309;28;20041;-64
2021/03/02 02:39:32;;;;;;;18.30;7.88;;;4.60;99.90;;;;;;5013083;28;20650;-64
2021/03/02 02:41:59;;;;;;;16.27;7.13;;;4.60;99.90;;;;;;5013336;28;20454;-64
2021/03/02 02:44:26;;;;;;;15.60;7.45;;;4.50;99.90;;;;;;4996202;28;20163;-64
2021/03/02 02:46:58;;;;;;;16.85;7.57;;;4.50;99.90;;;;;;5013017;28;20065;-64
2021/03/02 02:49:26;;;;;;;15.38;8.43;;;4.50;99.90;;;;;;5012814;28;20030;-64
2021/03/02 02:51:52;;;;;;;15.90;6.88;;;4.60;99.90;;;;;;5012850;28;20042;-65
2021/03/02 02:54:19;;;;;;;22.08;8.63;;;4.70;99.90;;;;;;5012964;28;20030;-65
2021/03/02 02:56:45;;;;;;;17.92;8.18;;;4.60;99.90;;;;;;5012827;28;20034;-65
2021/03/02 02:59:24;;;;;;;16.90;7.88;;;4.60;99.90;;;;;;5014045;28;20153;-65
2021/03/02 03:01:58;;;;;;;18.40;8.48;;;4.70;99.90;;;;;;5012654;28;20059;-64
2021/03/02 03:04:30;;;;;;;17.60;7.90;;;4.70;99.90;;;;;;5013719;28;20030;-65
2021/03/02 03:06:59;;;;;;;28.13;9.05;;;4.60;99.90;;;;;;5013767;28;20491;-65
2021/03/02 03:09:25;;;;;;;23.80;8.70;;;4.50;99.90;;;;;;5012547;28;20112;-65
2021/03/02 03:12:01;;;;;;;20.23;8.52;;;4.60;99.90;;;;;;5013440;28;20435;-65
2021/03/02 03:14:29;;;;;;;17.25;8.82;;;4.40;99.90;;;;;;5012617;28;20041;-65
2021/03/02 03:16:57;;;;;;;18.20;8.00;;;4.20;99.90;;;;;;5012154;28;20029;-64
2021/03/02 03:19:29;;;;;;;20.88;8.80;;;4.10;99.90;;;;;;5013694;28;20041;-64
2021/03/02 03:21:56;;;;;;;17.65;8.82;;;4.10;99.90;;;;;;5012008;28;20034;-64
2021/03/02 03:24:23;;;;;;;22.55;8.82;;;4.20;99.90;;;;;;5012180;28;20050;-65
2021/03/02 03:26:51;;;;;;;57.83;23.35;;;4.40;99.90;;;;;;5013374;28;20081;-65
2021/03/02 03:29:19;;;;;;;33.65;15.82;;;4.30;99.90;;;;;;5012423;28;20026;-65
2021/03/02 03:31:46;;;;;;;17.75;9.02;;;4.20;99.90;;;;;;5012164;28;20164;-64
2021/03/02 03:34:14;;;;;;;19.30;8.35;;;4.20;99.90;;;;;;5012149;28;20030;-65
2021/03/02 03:36:42;;;;;;;16.98;8.57;;;4.20;99.90;;;;;;5011920;28;20092;-64
2021/03/02 03:39:08;;;;;;;20.35;9.90;;;4.20;99.90;;;;;;5013343;28;20103;-64
2021/03/02 03:41:34;;;;;;;18.90;8.13;;;4.20;99.90;;;;;;5012996;28;20070;-65
2021/03/02 03:44:01;;;;;;;23.60;9.65;;;4.10;99.90;;;;;;5012909;28;20503;-64
2021/03/02 03:46:27;;;;;;;19.25;8.40;;;4.10;99.90;;;;;;5012021;28;20111;-64
2021/03/02 03:48:53;;;;;;;22.83;9.43;;;4.10;99.90;;;;;;5013162;28;20057;-65
2021/03/02 03:51:23;;;;;;;18.17;8.82;;;4.10;99.90;;;;;;5011976;28;20041;-64
2021/03/02 03:53:50;;;;;;;22.83;10.13;;;4.20;99.90;;;;;;5011847;28;20427;-64
2021/03/02 03:56:17;;;;;;;19.02;9.40;;;4.10;99.90;;;;;;5010956;28;20100;-64
2021/03/02 03:58:44;;;;;;;17.52;9.48;;;4.10;99.90;;;;;;5012664;28;20669;-65
2021/03/02 04:01:11;;;;;;;17.23;8.27;;;3.90;99.90;;;;;;5011834;28;20040;-64
2021/03/02 04:03:38;;;;;;;18.80;8.75;;;3.90;99.90;;;;;;5012796;28;20064;-64
2021/03/02 04:06:05;;;;;;;19.13;8.73;;;3.90;99.90;;;;;;5011764;28;20038;-64
2021/03/02 04:08:33;;;;;;;19.15;8.65;;;3.90;99.90;;;;;;5011659;28;20030;-64
2021/03/02 04:10:59;;;;;;;19.55;8.13;;;3.90;99.90;;;;;;5011761;28;20120;-64
2021/03/02 04:13:27;;;;;;;19.08;9.18;;;3.80;99.90;;;;;;5012829;28;20026;-64
2021/03/02 04:15:53;;;;;;;18.17;8.55;;;3.70;99.90;;;;;;5012596;28;20184;-64
2021/03/02 04:18:19;;;;;;;16.17;8.05;;;3.60;99.90;;;;;;5012837;28;20022;-64
2021/03/02 04:20:48;;;;;;;18.15;8.32;;;3.40;99.90;;;;;;5011135;28;20030;-64
2021/03/02 04:23:14;;;;;;;21.38;9.35;;;3.30;99.90;;;;;;5011505;28;20034;-64
2021/03/02 04:25:39;;;;;;;19.30;8.13;;;3.20;99.90;;;;;;5010997;28;20491;-64
2021/03/02 04:28:06;;;;;;;22.25;8.23;;;3.20;99.90;;;;;;5012657;28;20061;-64
2021/03/02 04:30:34;;;;;;;16.92;7.80;;;3.20;99.90;;;;;;5012480;28;20534;-65
2021/03/02 04:33:01;;;;;;;19.30;9.23;;;3.10;99.90;;;;;;5011094;28;20041;-64
2021/03/02 04:35:27;;;;;;;19.00;8.50;;;3.10;99.90;;;;;;5012336;28;20494;-64
2021/03/02 04:37:53;;;;;;;22.20;9.05;;;3.20;99.90;;;;;;5012492;28;20038;-65
2021/03/02 04:40:19;;;;;;;18.65;8.77;;;3.10;99.90;;;;;;5012509;28;20033;-64
2021/03/02 04:42:45;;;;;;;20.40;8.55;;;3.10;99.90;;;;;;5012271;28;20026;-65
2021/03/02 04:45:12;;;;;;;19.30;9.25;;;3.20;99.90;;;;;;5012081;28;20026;-64
2021/03/02 04:47:41;;;;;;;21.95;10.15;;;3.30;99.90;;;;;;4984894;28;20038;-64
2021/03/02 04:50:07;;;;;;;17.23;8.90;;;3.20;99.90;;;;;;5010549;28;20121;-63
2021/03/02 04:52:33;;;;;;;19.17;8.82;;;3.30;99.90;;;;;;5011983;28;20038;-64
2021/03/02 04:54:59;;;;;;;19.75;8.10;;;3.30;99.90;;;;;;4995248;28;20057;-67
2021/03/02 04:57:25;;;;;;;19.10;8.73;;;3.20;99.90;;;;;;5016389;28;20061;-65
2021/03/02 04:59:50;;;;;;;20.60;9.05;;;3.30;99.90;;;;;;5014096;28;20034;-66
2021/03/02 05:02:16;;;;;;;23.70;9.55;;;3.20;99.90;;;;;;5020075;28;20037;-66
2021/03/02 05:04:42;;;;;;;19.55;8.80;;;3.30;99.90;;;;;;5010727;28;20034;-67
2021/03/02 05:07:08;;;;;;;25.10;10.40;;;3.20;99.90;;;;;;5013055;28;20033;-66
2021/03/02 05:09:34;;;;;;;28.63;9.90;;;3.30;99.90;;;;;;5005000;28;20036;-65
2021/03/02 05:11:59;;;;;;;17.98;7.80;;;3.50;99.90;;;;;;5015632;28;20034;-64
2021/03/02 05:14:25;;;;;;;21.17;7.82;;;3.50;99.90;;;;;;5001779;28;20038;-66
2021/03/02 05:16:51;;;;;;;19.08;8.35;;;3.50;99.90;;;;;;5015497;28;20030;-65
2021/03/02 05:19:17;;;;;;;21.10;9.43;;;3.70;99.90;;;;;;5015768;28;20038;-66
2021/03/02 05:21:43;;;;;;;24.42;9.27;;;3.70;99.90;;;;;;5022697;28;20037;-66
2021/03/02 05:24:09;;;;;;;18.30;9.13;;;3.60;99.90;;;;;;5014096;28;20425;-66
2021/03/02 05:26:35;;;;;;;17.92;7.93;;;3.60;99.90;;;;;;5015868;28;20034;-66
2021/03/02 05:29:01;;;;;;;21.27;8.32;;;3.60;99.90;;;;;;5015617;28;20049;-69
2021/03/02 05:31:27;;;;;;;17.27;7.65;;;3.40;99.90;;;;;;5015473;28;20034;-68
2021/03/02 05:33:52;;;;;;;20.25;8.75;;;3.30;99.90;;;;;;5015478;28;20092;-68
2021/03/02 05:36:18;;;;;;;19.25;8.68;;;3.30;99.90;;;;;;5014029;28;20046;-67
2021/03/02 05:38:44;;;;;;;16.98;8.10;;;3.30;99.90;;;;;;5015433;28;20479;-68
2021/03/02 05:41:11;;;;;;;17.55;8.57;;;3.30;99.90;;;;;;5014106;28;20112;-68
2021/03/02 05:43:41;;;;;;;18.73;8.05;;;3.20;99.90;;;;;;5014120;28;20030;-68
2021/03/02 05:46:11;;;;;;;19.23;8.37;;;3.10;99.90;;;;;;5015108;28;20025;-68
2021/03/02 05:48:41;;;;;;;16.83;7.80;;;3.20;99.90;;;;;;5014310;28;20040;-67
2021/03/02 05:51:08;;;;;;;16.63;8.13;;;3.20;99.90;;;;;;5011076;28;20625;-66
2021/03/02 05:53:38;;;;;;;14.85;7.57;;;3.10;99.90;;;;;;5015096;28;20617;-67
2021/03/02 05:56:08;;;;;;;18.67;9.20;;;2.90;99.90;;;;;;5014822;28;20053;-66
2021/03/02 05:58:35;;;;;;;20.08;8.48;;;2.70;99.90;;;;;;4997817;28;20026;-67
2021/03/02 06:01:03;;;;;;;18.10;8.35;;;2.70;99.90;;;;;;5014713;28;20045;-68
2021/03/02 06:03:29;;;;;;;19.30;7.88;;;2.70;99.90;;;;;;5014769;28;20525;-68
2021/03/02 06:05:55;;;;;;;16.27;7.90;;;2.70;99.90;;;;;;5015075;28;20030;-68
2021/03/02 06:08:21;;;;;;;19.55;8.52;;;2.80;99.90;;;;;;5014550;28;20034;-66
2021/03/02 06:10:47;;;;;;;17.40;7.60;;;2.80;99.90;;;;;;5014524;28;20438;-65
2021/03/02 06:13:13;;;;;;;51.15;19.27;;;2.80;99.90;;;;;;4981145;28;20037;-65
2021/03/02 06:15:56;;;;;;;38.65;15.65;;;2.80;99.90;;;;;;5014456;28;20026;-66
2021/03/02 06:18:24;;;;;;;21.90;8.70;;;2.70;99.90;;;;;;4996162;28;20125;-66
2021/03/02 06:20:51;;;;;;;17.85;8.32;;;2.60;99.90;;;;;;5014515;28;20153;-66
2021/03/02 06:23:27;;;;;;;15.82;7.65;;;2.60;99.90;;;;;;4994818;28;20066;-64
2021/03/02 06:25:56;;;;;;;17.60;7.93;;;2.70;99.90;;;;;;5014036;28;20092;-65
2021/03/02 06:28:45;;;;;;;22.13;8.52;;;2.70;99.90;;;;;;5014675;28;20049;-65
2021/03/02 06:31:40;;;;;;;20.80;8.45;;;2.70;99.90;;;;;;4997187;28;20104;-65
2021/03/02 06:34:15;;;;;;;18.02;7.82;;;2.60;99.90;;;;;;5014079;28;20066;-66
2021/03/02 06:36:54;;;;;;;17.30;7.78;;;2.60;99.90;;;;;;5014499;28;20129;-66
2021/03/02 06:39:32;;;;;;;18.42;8.05;;;2.60;99.90;;;;;;5014421;28;20033;-66
2021/03/02 06:42:18;;;;;;;15.95;8.07;;;2.60;99.90;;;;;;5014211;28;20038;-65
2021/03/02 06:44:50;;;;;;;19.80;8.40;;;2.60;99.90;;;;;;5013130;28;20041;-65
2021/03/02 06:47:36;;;;;;;19.40;8.60;;;2.70;99.90;;;;;;5014256;28;20056;-65
2021/03/02 06:50:10;;;;;;;20.25;7.80;;;2.70;99.90;;;;;;5014238;28;20065;-65
2021/03/02 06:52:39;;;;;;;17.92;8.68;;;2.80;99.90;;;;;;5016458;28;20052;-65
2021/03/02 06:55:26;;;;;;;21.40;8.85;;;2.80;99.90;;;;;;5016128;28;20029;-66
2021/03/02 06:58:33;;;;;;;25.45;8.68;;;2.90;99.90;;;;;;5016141;28;20048;-65
2021/03/02 07:00:58;;;;;;;25.45;9.90;;;3.00;99.90;;;;;;5018346;28;20064;-66
2021/03/02 07:03:32;;;;;;;18.27;7.93;;;3.10;99.90;;;;;;5032353;28;20478;-66
2021/03/02 07:06:04;;;;;;;23.33;9.90;;;3.20;99.90;;;;;;5039352;28;20030;-65
2021/03/02 07:08:31;;;;;;;16.50;8.00;;;3.20;99.90;;;;;;5016542;28;20033;-64
2021/03/02 07:10:59;;;;;;;24.02;9.20;;;3.30;99.90;;;;;;5033641;28;20037;-65
2021/03/02 07:13:29;;;;;;;18.67;7.43;;;3.40;99.90;;;;;;5029555;28;20041;-66
2021/03/02 07:15:55;;;;;;;16.75;8.68;;;3.40;99.90;;;;;;5012253;28;20065;-65
2021/03/02 07:18:24;;;;;;;17.73;7.72;;;3.50;99.90;;;;;;5012278;28;20096;-66
2021/03/02 07:20:53;;;;;;;19.27;8.30;;;3.70;99.90;;;;;;5013324;28;20080;-66
2021/03/02 07:23:22;;;;;;;23.15;9.20;;;3.80;99.90;;;;;;4991381;28;20069;-66
2021/03/02 07:25:50;;;;;;;21.17;8.02;;;3.90;99.90;;;;;;5012932;28;20042;-66
2021/03/02 07:28:27;;;;;;;22.83;8.80;;;4.00;99.90;;;;;;4996625;28;20077;-66
2021/03/02 07:30:54;;;;;;;16.83;8.27;;;4.00;99.90;;;;;;5011962;28;20511;-66
2021/03/02 07:33:20;;;;;;;19.17;8.57;;;4.00;99.90;;;;;;5013143;28;20447;-66
2021/03/02 07:35:47;;;;;;;18.80;8.85;;;4.10;99.90;;;;;;4995947;28;20025;-66
2021/03/02 07:38:19;;;;;;;17.17;8.57;;;4.20;99.90;;;;;;4995803;28;20495;-66
2021/03/02 07:40:51;;;;;;;21.75;8.93;;;4.30;99.90;;;;;;5013270;28;20486;-65
2021/03/02 07:43:35;;;;;;;59.47;23.98;;;4.40;99.90;;;;;;5012810;28;20121;-65
2021/03/02 07:46:38;;;;;;;18.83;9.18;;;4.50;99.90;;;;;;5013271;28;20030;-66
2021/03/02 07:49:22;;;;;;;18.15;8.88;;;4.60;99.90;;;;;;5012759;28;20034;-65
2021/03/02 07:52:09;;;;;;;15.82;8.00;;;4.70;99.90;;;;;;5020858;28;20453;-66
2021/03/02 07:54:35;;;;;;;19.45;8.20;;;4.90;99.90;;;;;;5016179;28;20124;-66
2021/03/02 07:57:16;;;;;;;16.85;8.43;;;4.90;99.90;;;;;;5015216;28;20120;-67
2021/03/02 07:59:46;;;;;;;17.20;8.10;;;5.00;99.90;;;;;;5032713;28;20045;-65
2021/03/02 08:02:17;;;;;;;20.03;8.23;;;5.10;99.90;;;;;;5032295;28;20071;-65
2021/03/02 08:04:51;;;;;;;17.48;7.65;;;5.20;99.90;;;;;;5032509;28;20040;-67
2021/03/02 08:07:24;;;;;;;24.25;8.40;;;5.30;99.90;;;;;;5015104;28;20501;-67
2021/03/02 08:09:55;;;;;;;18.27;8.13;;;5.40;99.90;;;;;;5014511;28;20052;-67
2021/03/02 08:12:36;;;;;;;18.27;8.20;;;5.50;99.90;;;;;;5032584;28;20539;-67
2021/03/02 08:15:21;;;;;;;18.13;9.48;;;5.60;99.90;;;;;;5032529;28;20387;-67
2021/03/02 08:17:47;;;;;;;19.52;7.80;;;5.80;99.90;;;;;;5031614;28;20033;-68
2021/03/02 08:20:13;;;;;;;16.48;8.35;;;5.90;99.90;;;;;;5032452;28;20041;-67
2021/03/02 08:22:42;;;;;;;19.67;9.07;;;6.00;99.90;;;;;;4999726;28;20076;-66
2021/03/02 08:25:25;;;;;;;14.63;7.93;;;6.10;99.90;;;;;;5012050;28;20057;-66
2021/03/02 08:27:57;;;;;;;21.05;8.65;;;6.20;99.90;;;;;;5012596;28;20092;-66
2021/03/02 08:30:37;;;;;;;21.10;8.40;;;6.40;99.90;;;;;;4994909;28;20092;-66
2021/03/02 08:33:10;;;;;;;18.10;8.57;;;6.50;99.90;;;;;;5011207;28;20046;-66
2021/03/02 08:35:40;;;;;;;17.08;8.77;;;6.60;99.90;;;;;;5012616;28;20035;-65
2021/03/02 08:38:08;;;;;;;18.00;9.10;;;6.80;99.90;;;;;;5012371;28;20030;-67
2021/03/02 08:40:34;;;;;;;19.02;9.07;;;6.80;99.90;;;;;;5012604;28;20348;-66
2021/03/02 08:43:26;;;;;;;18.48;8.68;;;7.00;99.90;;;;;;5014726;28;20040;-66
2021/03/02 08:45:57;;;;;;;18.35;9.25;;;7.10;99.90;;;;;;5016324;28;20061;-67
2021/03/02 08:48:33;;;;;;;23.38;9.80;;;7.20;99.90;;;;;;5016299;28;20069;-66
2021/03/02 08:51:10;;;;;;;19.90;10.30;;;7.40;99.90;;;;;;5017583;28;20049;-67
2021/03/02 08:53:40;;;;;;;18.70;9.00;;;7.60;99.90;;;;;;5036152;28;20049;-67
2021/03/02 08:56:12;;;;;;;20.30;9.80;;;7.70;99.90;;;;;;5032698;28;20064;-67
2021/03/02 08:58:40;;;;;;;19.33;8.73;;;8.00;99.90;;;;;;5036047;28;20036;-66
2021/03/02 09:01:12;;;;;;;19.83;10.02;;;8.20;99.90;;;;;;5036029;28;20029;-67
2021/03/02 09:03:44;;;;;;;22.70;10.75;;;8.30;99.90;;;;;;5017880;28;20037;-66
2021/03/02 09:06:25;;;;;;;23.83;11.00;;;8.40;99.90;;;;;;5035715;28;20052;-67
2021/03/02 09:09:01;;;;;;;23.05;10.73;;;8.40;99.90;;;;;;5018071;28;20096;-67
2021/03/02 09:11:35;;;;;;;21.08;10.20;;;8.60;99.90;;;;;;5035980;28;20124;-67
2021/03/02 09:14:18;;;;;;;21.85;9.82;;;8.80;99.90;;;;;;5018786;28;20029;-66
2021/03/02 09:16:55;;;;;;;18.08;9.68;;;8.90;99.90;;;;;;5035539;28;20025;-67
2021/03/02 09:19:39;;;;;;;21.15;9.55;;;9.10;99.90;;;;;;5019493;28;20245;-67
2021/03/02 09:22:17;;;;;;;19.08;9.30;;;9.30;99.90;;;;;;5025272;28;20037;-67
2021/03/02 09:24:56;;;;;;;20.25;9.80;;;9.50;99.90;;;;;;5015382;28;20121;-66
2021/03/02 09:27:33;;;;;;;21.02;9.32;;;9.30;99.90;;;;;;5016015;28;20049;-68
2021/03/02 09:30:00;;;;;;;20.75;9.52;;;9.40;99.90;;;;;;5015744;28;20050;-67
2021/03/02 09:32:31;;;;;;;19.80;8.57;;;9.50;99.90;;;;;;4981786;28;20037;-67
2021/03/02 09:35:03;;;;;;;;;;;9.80;99.90;;;;;;4998634;28;20117;-67
2021/03/02 09:37:29;;;;;;;17.67;8.98;;;10.00;99.90;;;;;;4998368;28;19920;-68
2021/03/02 09:39:57;;;;;;;20.13;9.20;;;10.00;99.90;;;;;;5015648;28;20109;-67
2021/03/02 09:42:27;;;;;;;19.58;9.75;;;10.20;99.90;;;;;;5015188;28;20048;-67
2021/03/02 09:44:56;;;;;;;24.25;9.68;;;10.40;99.90;;;;;;5015634;28;20070;-68
2021/03/02 09:47:28;;;;;;;26.52;9.50;;;10.40;99.90;;;;;;5015487;28;20493;-67
2021/03/02 09:50:03;;;;;;;17.65;8.98;;;10.30;99.90;;;;;;4997947;28;20157;-66
2021/03/02 09:52:41;;;;;;;16.90;9.00;;;10.60;99.90;;;;;;4994386;28;20042;-65
2021/03/02 09:55:26;;;;;;;22.42;8.70;;;10.90;99.90;;;;;;5034992;28;20091;-67
2021/03/02 09:58:15;;;;;;;20.27;8.45;;;10.90;99.90;;;;;;5034998;28;20451;-67
2021/03/02 10:00:58;;;;;;;19.85;8.75;;;11.10;99.90;;;;;;5018333;28;20033;-67
2021/03/02 10:03:33;;;;;;;19.35;9.68;;;11.30;99.90;;;;;;5034700;28;20113;-66
2021/03/02 10:06:02;;;;;;;19.42;9.73;;;11.10;99.90;;;;;;5034528;28;20021;-67
2021/03/02 10:08:47;;;;;;;17.98;9.48;;;11.40;99.90;;;;;;5000675;28;20446;-67
2021/03/02 10:11:13;;;;;;;24.33;9.80;;;11.60;99.40;;;;;;5034020;28;20029;-68
2021/03/02 10:13:45;;;;;;;20.10;9.48;;;11.50;99.90;;;;;;5034818;28;20372;-67
2021/03/02 10:16:15;;;;;;;18.40;9.25;;;11.40;99.80;;;;;;5034561;28;20032;-67
2021/03/02 10:18:50;;;;;;;16.67;9.57;;;11.80;99.40;;;;;;5034620;28;20065;-67
2021/03/02 10:21:16;;;;;;;19.27;9.55;;;12.00;99.30;;;;;;5031154;28;20080;-66
2021/03/02 10:24:03;;;;;;;21.00;10.52;;;12.10;98.50;;;;;;5014231;28;20542;-66
2021/03/02 10:26:33;;;;;;;20.00;9.80;;;12.50;98.20;;;;;;4997446;28;20034;-67
2021/03/02 10:29:00;;;;;;;17.40;10.00;;;12.90;97.00;;;;;;5014707;28;20387;-67
2021/03/02 10:31:27;;;;;;;22.85;10.30;;;13.10;97.10;;;;;;5014322;28;20462;-66
2021/03/02 10:33:54;;;;;;;21.80;9.45;;;13.10;96.20;;;;;;5014541;28;20030;-67
2021/03/02 10:36:35;;;;;;;25.30;10.60;;;13.20;96.10;;;;;;5014506;28;20030;-67
2021/03/02 10:39:13;;;;;;;16.98;9.82;;;13.00;96.30;;;;;;5014003;28;20034;-67
2021/03/02 10:41:44;;;;;;;17.58;9.43;;;13.50;95.60;;;;;;5014116;28;20058;-67
2021/03/02 10:44:10;;;;;;;20.92;9.70;;;13.50;95.10;;;;;;5013781;28;20034;-66
2021/03/02 10:46:37;;;;;;;19.27;10.45;;;12.70;95.60;;;;;;5011822;28;20104;-68
2021/03/02 10:49:04;;;;;;;24.08;10.55;;;12.70;95.70;;;;;;5014193;28;20101;-67
2021/03/02 10:51:32;;;;;;;19.50;9.30;;;13.30;96.00;;;;;;5000317;28;20018;-66
2021/03/02 10:53:58;;;;;;;21.85;9.73;;;13.50;95.00;;;;;;5016484;28;20088;-66
2021/03/02 10:56:25;;;;;;;18.35;10.02;;;14.00;93.90;;;;;;5033408;28;20470;-68
2021/03/02 10:58:51;;;;;;;18.85;8.80;;;13.90;94.10;;;;;;5033471;28;20434;-67
2021/03/02 11:01:19;;;;;;;23.50;10.07;;;14.10;93.60;;;;;;5033325;28;20589;-67
2021/03/02 11:03:45;;;;;;;16.55;9.80;;;14.20;93.50;;;;;;5016165;28;20088;-66
2021/03/02 11:06:12;;;;;;;19.83;8.75;;;14.60;91.90;;;;;;5033020;28;20025;-65
2021/03/02 11:08:39;;;;;;;18.27;8.93;;;14.00;93.90;;;;;;5033476;28;20041;-65
2021/03/02 11:11:05;;;;;;;20.13;9.15;;;13.80;93.40;;;;;;5015934;28;20029;-67
2021/03/02 11:13:31;;;;;;;16.35;9.10;;;14.90;91.10;;;;;;5015686;28;20037;-66
2021/03/02 11:15:57;;;;;;;20.17;9.48;;;15.60;89.00;;;;;;5033521;28;20048;-65
2021/03/02 11:18:23;;;;;;;15.38;8.60;;;16.40;87.00;;;;;;5033427;28;20377;-66
2021/03/02 11:20:48;;;;;;;17.33;8.70;;;15.40;84.10;;;;;;5032739;28;20037;-67
2021/03/02 11:23:14;;;;;;;18.73;9.85;;;14.30;90.00;;;;;;5013303;28;20034;-65
2021/03/02 11:25:41;;;;;;;15.98;8.80;;;15.60;90.20;;;;;;4995797;28;20091;-65
2021/03/02 11:28:09;;;;;;;19.15;9.15;;;16.50;82.30;;;;;;5013482;28;20038;-66
2021/03/02 11:30:36;;;;;;;15.63;9.00;;;16.70;83.40;;;;;;5013749;28;20026;-54
2021/03/02 11:33:02;;;;;;;17.38;8.93;;;18.20;75.50;;;;;;5013317;28;20056;-49
2021/03/02 11:35:28;;;;;;;18.65;9.45;;;19.90;65.80;;;;;;5013292;28;20088;-49
2021/03/02 11:37:54;;;;;;;17.48;8.95;;;18.30;68.00;;;;;;5013171;28;20026;-48
2021/03/02 11:40:22;;;;;;;15.95;9.20;;;18.20;67.00;;;;;;5013018;28;20056;-50
2021/03/02 11:42:52;;;;;;;14.85;9.10;;;20.60;63.80;;;;;;5013194;28;20560;-67
2021/03/02 11:45:21;;;;;;;17.47;9.10;;;21.90;55.30;;;;;;5013123;28;20038;-66
2021/03/02 11:47:48;;;;;;;14.18;8.48;;;23.80;52.00;;;;;;4995819;28;20031;-68
2021/03/02 11:50:15;;;;;;;16.25;8.90;;;24.50;48.90;;;;;;5012672;28;20041;-68
2021/03/02 11:52:41;;;;;;;16.33;7.97;;;23.60;49.40;;;;;;5028089;28;20029;-66
2021/03/02 11:55:09;;;;;;;16.35;8.70;;;24.20;45.60;;;;;;5032732;28;20548;-67
2021/03/02 11:57:35;;;;;;;15.57;8.60;;;20.30;51.70;;;;;;5032494;28;20453;-66
2021/03/02 12:00:03;;;;;;;17.33;8.95;;;22.80;51.70;;;;;;5015223;28;20041;-67
2021/03/02 12:02:29;;;;;;;15.07;8.40;;;22.10;50.20;;;;;;5032425;28;20040;-67
2021/03/02 12:04:54;;;;;;;14.68;9.10;;;21.10;50.40;;;;;;5032784;28;20116;-66
2021/03/02 12:07:21;;;;;;;18.67;8.95;;;20.40;53.80;;;;;;5014714;28;20048;-66
2021/03/02 12:09:47;;;;;;;17.90;9.30;;;22.70;50.40;;;;;;5015180;28;20034;-67
2021/03/02 12:12:13;;;;;;;15.63;8.40;;;24.00;48.60;;;;;;5032249;28;20075;-67
2021/03/02 12:14:38;;;;;;;12.50;7.65;;;26.20;44.90;;;;;;5032243;28;20037;-66
2021/03/02 12:17:04;;;;;;;17.95;8.38;;;25.50;44.30;;;;;;5031322;28;20033;-66
2021/03/02 12:19:30;;;;;;;16.00;8.98;;;23.30;44.20;;;;;;5032330;28;20033;-66
2021/03/02 12:21:56;;;;;;;17.15;9.07;;;21.00;50.40;;;;;;5005163;28;20038;-67
2021/03/02 12:24:22;;;;;;;19.05;8.25;;;21.10;52.60;;;;;;5011893;28;20106;-66
2021/03/02 12:26:48;;;;;;;17.55;9.20;;;23.90;46.60;;;;;;4994786;28;20058;-68
2021/03/02 12:29:15;;;;;;;13.52;7.20;;;22.50;50.20;;;;;;5012320;28;20143;-67
2021/03/02 12:31:42;;;;;;;14.20;8.20;;;21.80;52.70;;;;;;5012581;28;20141;-66
2021/03/02 12:34:09;;;;;;;15.95;8.63;;;22.00;48.80;;;;;;5012441;28;20038;-66
2021/03/02 12:36:35;;;;;;;15.75;7.22;;;21.00;51.50;;;;;;5012384;28;20053;-66
2021/03/02 12:39:01;;;;;;;14.48;8.85;;;23.20;48.90;;;;;;4994500;28;20478;-67
2021/03/02 12:41:26;;;;;;;11.75;7.40;;;25.50;45.00;;;;;;5012425;28;20022;-66
2021/03/02 12:43:52;;;;;;;11.80;7.28;;;23.30;44.30;;;;;;5012050;28;20045;-67
2021/03/02 12:46:18;;;;;;;13.25;7.25;;;26.00;45.00;;;;;;5012373;28;20523;-67
2021/03/02 12:48:44;;;;;;;12.88;7.25;;;27.50;40.90;;;;;;5012367;28;20045;-66
2021/03/02 12:51:09;;;;;;;15.82;7.65;;;25.60;43.60;;;;;;5012185;28;20029;-66
2021/03/02 12:53:35;;;;;;;10.95;7.03;;;22.80;46.10;;;;;;5011851;28;20025;-66
2021/03/02 12:56:01;;;;;;;20.58;10.00;;;21.50;48.50;;;;;;4995506;28;20053;-66
2021/03/02 12:58:27;;;;;;;21.98;8.60;;;23.80;46.10;;;;;;5013806;28;20111;-67